Main page
METAR-TAF:

METAR-TAF

Airports :

RAF Woodvale

Woodvale, England

latitude: 53-34-54N, longitude: 003-03-20W, elevation: 11 m

Current weather observation

The report was made 7 hours and 7 minutes ago, at 15:50 UTC
Wind 9 kt from the East/Southeast
Temperature 6°C
Humidity 75%
Pressure 1001 hPa
Visibility: 8000 m
Broken clouds at a height of 2000 ft
haze

METAR: EGOW 211550Z 11009KT 8000 HZ BKN020 06/02 Q1001 RMK WHT

Time: 22:57 (22:57 UTC)

Forecast

The report was made 9 hours and 19 minutes ago, at 13:38 UTC
Forecast valid from 21 at 15 UTC to 21 at 18 UTC
Wind 15 kt from the East/Southeast
Visibility 10 km or more
Broken clouds at a height of 2500 ft
Temporary
from 21 at 15 UTC to 21 at 18 UTC
Wind 17 kt from the East/Southeast with gusts up to 28 kt
Scattered clouds at a height of 2000 ft

TAF: EGOW 211338Z 2115/2118 11015KT 9999 BKN025 TEMPO 2115/2118 11017G28KT SCT020

Weather observations and forecasts of more than 4000 airports (METAR and TAF reports).

The available stations are represented by yellow and red dots on the map.

Hover mouse over dot to see the name of the station.

Then click to see weather observations and forecasts.

To change the map : click on the green buttons with a black cross to zoom in, on the green button with a dash to zoom out, or on the green arrows for adjacent maps.


METAR-TAF: